createdAt,value
2022-08-30T00:01:28.979Z,89533.44
2022-08-30T00:03:56.088Z,89530.38
2022-08-30T00:06:23.967Z,89528.75
2022-08-30T00:08:51.071Z,89523.84
2022-08-30T00:11:21.849Z,89529.28
2022-08-30T00:13:50.708Z,89518.22
2022-08-30T00:16:19.921Z,89516.81
2022-08-30T00:18:46.915Z,89501.66
2022-08-30T00:21:14.442Z,89512.53
2022-08-30T00:23:42.266Z,89524.63
2022-08-30T00:26:09.099Z,89514.13
2022-08-30T00:28:36.071Z,89515.56
2022-08-30T00:31:04.352Z,89519.41
2022-08-30T00:33:31.582Z,89520.84
2022-08-30T00:35:59.544Z,89515.41
2022-08-30T00:38:26.474Z,89517.44
2022-08-30T00:40:53.685Z,89514.19
2022-08-30T00:43:24.444Z,89515.81
2022-08-30T00:45:55.239Z,89519.81
2022-08-30T00:48:22.998Z,89518.72
2022-08-30T00:50:58.191Z,89508.28
2022-08-30T00:53:31.443Z,89524.34
2022-08-30T00:56:00.670Z,89525.63
2022-08-30T00:58:31.935Z,89527.47
2022-08-30T01:01:01.144Z,89519.31
2022-08-30T01:03:30.327Z,89521.84
2022-08-30T01:05:58.444Z,89525.13
2022-08-30T01:08:25.359Z,89518.59
2022-08-30T01:10:54.056Z,89520.59
2022-08-30T01:13:22.711Z,89523.84
2022-08-30T01:15:50.425Z,89522.41
2022-08-30T01:18:22.187Z,89522.00
2022-08-30T01:21:15.424Z,89510.97
2022-08-30T01:23:44.190Z,89511.88
2022-08-30T01:26:14.082Z,89512.63
2022-08-30T01:28:46.586Z,89513.16
2022-08-30T01:31:13.828Z,89491.13
2022-08-30T01:33:41.427Z,89502.88
2022-08-30T01:36:12.861Z,89503.25
2022-08-30T01:38:54.281Z,89507.25
2022-08-30T01:41:35.007Z,89497.13
2022-08-30T01:44:05.682Z,89507.59
2022-08-30T01:46:37.722Z,89505.44
2022-08-30T01:49:11.976Z,89505.09
2022-08-30T01:51:39.426Z,89509.44
2022-08-30T01:54:06.442Z,89509.25
2022-08-30T01:56:33.582Z,89504.19
2022-08-30T01:59:02.922Z,89505.09
2022-08-30T02:01:34.370Z,89498.78
2022-08-30T02:04:01.754Z,89505.28
2022-08-30T02:06:28.974Z,89515.94
2022-08-30T02:08:55.870Z,89502.22
2022-08-30T02:11:23.212Z,89504.72
2022-08-30T02:13:50.279Z,89506.19
2022-08-30T02:16:20.137Z,89505.47
2022-08-30T02:18:47.087Z,89498.63
2022-08-30T02:21:13.957Z,89505.66
2022-08-30T02:23:41.502Z,89501.13
2022-08-30T02:26:09.522Z,89510.53
2022-08-30T02:28:42.800Z,89499.50
2022-08-30T02:31:20.662Z,89492.28
2022-08-30T02:33:52.819Z,89498.25
2022-08-30T02:36:21.502Z,89504.75
2022-08-30T02:38:50.485Z,89497.53
2022-08-30T02:41:18.371Z,89500.41
2022-08-30T02:43:45.421Z,89503.16
2022-08-30T02:46:12.695Z,89498.06
2022-08-30T02:48:39.852Z,89506.94
2022-08-30T02:51:11.681Z,89500.59
2022-08-30T02:53:39.618Z,89500.59
2022-08-30T02:56:07.123Z,89506.00
2022-08-30T02:58:34.153Z,89489.94
2022-08-30T03:01:01.065Z,89515.25
2022-08-30T03:03:28.140Z,89510.88
2022-08-30T03:05:55.304Z,89510.88
2022-08-30T03:08:22.123Z,89509.28
2022-08-30T03:10:49.077Z,89518.50
2022-08-30T03:13:16.442Z,89517.22
2022-08-30T03:15:43.515Z,89519.94
2022-08-30T03:18:10.359Z,89512.69
2022-08-30T03:20:37.303Z,89517.06
2022-08-30T03:23:04.244Z,89519.75
2022-08-30T03:25:31.077Z,89518.28
2022-08-30T03:27:57.934Z,89517.06
2022-08-30T03:30:24.910Z,89524.09
2022-08-30T03:32:51.849Z,89512.69
2022-08-30T03:35:19.526Z,89508.53
2022-08-30T03:37:46.598Z,89519.94
2022-08-30T03:40:17.035Z,89521.38
2022-08-30T03:42:46.936Z,89523.38
2022-08-30T03:45:17.135Z,89528.97
2022-08-30T03:47:44.540Z,89539.81
2022-08-30T03:50:13.214Z,89534.00
2022-08-30T03:52:40.456Z,89536.16
2022-08-30T03:55:07.818Z,89539.75
2022-08-30T03:57:34.933Z,89543.72
2022-08-30T04:00:05.063Z,89540.44
2022-08-30T04:02:31.963Z,89525.25
2022-08-30T04:04:58.907Z,89545.81
2022-08-30T04:07:25.887Z,89541.59
2022-08-30T04:09:52.694Z,89546.63
2022-08-30T04:12:22.581Z,89548.91
2022-08-30T04:14:50.028Z,89551.25
2022-08-30T04:17:16.910Z,89544.44
2022-08-30T04:19:44.058Z,89549.78
2022-08-30T04:22:10.986Z,89539.91
2022-08-30T04:24:38.024Z,89538.41
2022-08-30T04:27:05.280Z,89546.66
2022-08-30T04:29:34.290Z,89552.56
2022-08-30T04:32:01.339Z,89544.34
2022-08-30T04:34:28.318Z,89552.94
2022-08-30T04:36:55.292Z,89544.69
2022-08-30T04:39:22.604Z,89554.16
2022-08-30T04:41:49.572Z,89557.69
2022-08-30T04:44:19.377Z,89557.78
2022-08-30T04:46:47.259Z,89555.47
2022-08-30T04:49:14.195Z,89546.94
2022-08-30T04:51:41.445Z,89538.09
2022-08-30T04:54:08.318Z,89544.81
2022-08-30T04:56:35.825Z,89545.44
2022-08-30T04:59:03.473Z,89545.28
2022-08-30T05:01:32.330Z,89549.06
2022-08-30T05:04:12.102Z,89548.84
2022-08-30T05:06:38.958Z,89549.22
2022-08-30T05:09:05.907Z,89540.31
2022-08-30T05:11:32.898Z,89541.25
2022-08-30T05:13:59.972Z,89541.25
2022-08-30T05:16:27.060Z,89545.75
2022-08-30T05:18:54.010Z,89544.47
2022-08-30T05:21:24.688Z,89547.06
2022-08-30T05:23:54.485Z,89543.63
2022-08-30T05:26:25.217Z,89542.94
2022-08-30T05:28:52.784Z,89543.38
2022-08-30T05:31:26.155Z,89545.13
2022-08-30T05:33:54.917Z,89541.97
2022-08-30T05:36:24.866Z,89542.53
2022-08-30T05:38:52.682Z,89548.44
2022-08-30T05:41:22.267Z,89546.97
2022-08-30T05:43:49.473Z,89534.47
2022-08-30T05:46:16.675Z,89532.56
2022-08-30T05:48:43.643Z,89544.22
2022-08-30T05:51:13.594Z,89539.44
2022-08-30T05:53:41.666Z,89535.84
2022-08-30T05:56:12.249Z,89534.38
2022-08-30T05:58:39.697Z,89543.72
2022-08-30T06:01:07.213Z,89542.97
2022-08-30T06:03:34.592Z,89535.59
2022-08-30T06:06:01.889Z,89543.53
2022-08-30T06:08:28.767Z,89530.25
2022-08-30T06:10:55.605Z,89537.88
2022-08-30T06:13:22.437Z,89531.06
2022-08-30T06:15:49.719Z,89535.88
2022-08-30T06:18:16.924Z,89542.59
2022-08-30T06:20:46.487Z,89544.31
2022-08-30T06:23:17.817Z,89541.25
2022-08-30T06:25:44.907Z,89543.94
2022-08-30T06:28:12.549Z,89535.09
2022-08-30T06:30:41.856Z,89541.94
2022-08-30T06:33:09.131Z,89545.44
2022-08-30T06:35:46.738Z,89543.94
2022-08-30T06:38:23.939Z,89542.91
2022-08-30T06:40:50.746Z,89544.88
2022-08-30T06:43:17.643Z,89538.47
2022-08-30T06:45:44.654Z,89534.31
2022-08-30T06:48:11.528Z,89540.09
2022-08-30T06:50:38.397Z,89536.28
2022-08-30T06:53:05.505Z,89540.16
2022-08-30T06:55:32.331Z,89531.81
2022-08-30T06:58:02.623Z,89537.34
2022-08-30T07:00:30.483Z,89540.44
2022-08-30T07:02:57.506Z,89539.72
2022-08-30T07:05:24.447Z,89543.09
2022-08-30T07:07:52.189Z,89533.31
2022-08-30T07:10:19.163Z,89544.66
2022-08-30T07:12:46.150Z,89541.66
2022-08-30T07:15:13.802Z,89547.88
2022-08-30T07:17:40.639Z,89542.84
2022-08-30T07:20:07.954Z,89540.22
2022-08-30T07:22:34.807Z,89538.41
2022-08-30T07:25:02.077Z,89536.94
2022-08-30T07:27:28.952Z,89540.81
2022-08-30T07:29:55.884Z,89533.00
2022-08-30T07:32:22.695Z,89534.44
2022-08-30T07:34:49.519Z,89535.63
2022-08-30T07:37:18.919Z,89538.25
2022-08-30T07:39:47.950Z,89536.53
2022-08-30T07:42:16.294Z,89538.19
2022-08-30T07:44:43.446Z,89530.03
2022-08-30T07:47:11.132Z,89531.81
2022-08-30T07:49:38.193Z,89521.63
2022-08-30T07:52:05.426Z,89536.06
2022-08-30T07:54:32.286Z,89536.06
2022-08-30T07:56:59.361Z,89542.53
2022-08-30T07:59:26.201Z,89535.44
2022-08-30T08:01:53.170Z,89529.22
2022-08-30T08:04:20.138Z,89529.66
2022-08-30T08:06:47.077Z,89536.09
2022-08-30T08:09:14.033Z,89530.47
2022-08-30T08:11:40.951Z,89522.53
2022-08-30T08:14:09.043Z,89531.94
2022-08-30T08:16:37.219Z,89522.34
2022-08-30T08:19:05.148Z,89510.81
2022-08-30T08:21:32.297Z,89521.34
2022-08-30T08:23:59.137Z,89514.69
2022-08-30T08:26:26.151Z,89514.47
2022-08-30T08:28:53.412Z,89515.63
2022-08-30T08:31:27.182Z,89506.75
2022-08-30T08:36:33.776Z,89496.81
2022-08-30T08:39:01.632Z,89503.84
2022-08-30T08:41:55.560Z,89492.91
2022-08-30T08:44:32.456Z,89488.63
2022-08-30T08:47:16.018Z,89485.88
2022-08-30T08:49:46.324Z,89491.50
2022-08-30T08:52:21.413Z,89491.19
2022-08-30T08:55:02.441Z,89495.31
2022-08-30T08:57:37.188Z,89491.00
2022-08-30T09:00:08.439Z,89493.16
2022-08-30T09:03:04.389Z,89488.38
2022-08-30T09:05:39.658Z,89495.50
2022-08-30T09:08:11.717Z,89496.31
2022-08-30T09:10:50.332Z,89488.03
2022-08-30T09:13:18.989Z,89481.91
2022-08-30T09:15:48.962Z,89483.34
2022-08-30T09:21:08.149Z,89477.63
2022-08-30T09:23:35.054Z,89473.13
2022-08-30T09:26:06.263Z,89468.53
2022-08-30T09:28:43.506Z,89471.91
2022-08-30T09:31:29.002Z,89477.44
2022-08-30T09:34:16.024Z,89477.63
2022-08-30T09:36:51.324Z,89468.72
2022-08-30T09:39:27.657Z,89474.25
2022-08-30T09:42:10.161Z,89471.50
2022-08-30T09:44:38.890Z,89470.19
2022-08-30T09:47:20.950Z,89472.69
2022-08-30T09:50:02.213Z,89459.66
2022-08-30T09:52:40.081Z,89464.66
2022-08-30T09:55:28.928Z,89468.72
2022-08-30T09:58:20.131Z,89467.81
2022-08-30T10:01:13.836Z,89462.81
2022-08-30T10:03:56.247Z,89461.66
2022-08-30T10:06:31.343Z,89454.72
2022-08-30T10:09:22.887Z,89463.84
2022-08-30T10:12:11.806Z,89462.50
2022-08-30T10:15:08.030Z,89455.56
2022-08-30T10:18:19.273Z,89448.78
2022-08-30T10:21:10.476Z,89441.66
2022-08-30T10:23:49.645Z,89447.59
2022-08-30T10:26:26.083Z,89448.50
2022-08-30T10:29:03.728Z,89446.06
2022-08-30T10:31:43.634Z,89447.78
2022-08-30T10:34:18.492Z,89447.28
2022-08-30T10:36:53.293Z,89434.06
2022-08-30T10:39:26.792Z,89434.31
2022-08-30T10:42:11.509Z,89432.28
2022-08-30T10:44:43.734Z,89435.22
2022-08-30T10:47:10.466Z,89443.63
2022-08-30T10:49:44.313Z,89436.22
2022-08-30T10:52:33.306Z,89433.78
2022-08-30T10:55:07.753Z,89425.28
2022-08-30T10:57:34.991Z,89428.66
2022-08-30T11:00:08.044Z,89415.09
2022-08-30T11:02:53.331Z,89413.22
2022-08-30T11:05:58.407Z,89430.50
2022-08-30T11:09:02.353Z,89414.38
2022-08-30T11:12:16.613Z,89408.72
2022-08-30T11:14:46.626Z,89400.56
2022-08-30T11:17:22.240Z,89391.34
2022-08-30T11:19:51.505Z,89407.47
2022-08-30T11:22:35.574Z,89383.91
2022-08-30T11:25:13.614Z,89401.78
2022-08-30T11:27:53.484Z,89392.00
2022-08-30T11:30:26.539Z,89386.56
2022-08-30T11:33:08.401Z,89387.50
2022-08-30T11:35:48.156Z,89385.16
2022-08-30T11:38:18.351Z,89381.91
2022-08-30T11:40:48.369Z,89376.25
2022-08-30T11:43:34.101Z,89377.47
2022-08-30T11:46:34.158Z,89382.69
2022-08-30T11:49:45.205Z,89380.25
2022-08-30T11:52:27.761Z,89378.28
2022-08-30T11:55:23.680Z,89364.97
2022-08-30T11:58:32.748Z,89365.34
2022-08-30T12:01:50.946Z,89354.16
2022-08-30T12:04:17.363Z,89367.34
2022-08-30T12:06:47.547Z,89352.72
2022-08-30T12:09:26.404Z,89357.78
2022-08-30T12:11:55.909Z,89352.88
2022-08-30T12:14:45.824Z,89352.50
2022-08-30T12:17:30.922Z,89354.53
2022-08-30T12:19:59.126Z,89338.44
2022-08-30T12:22:26.724Z,89339.50
2022-08-30T12:24:54.666Z,89328.84
2022-08-30T12:27:32.741Z,89334.72
2022-08-30T12:30:05.562Z,89349.63
2022-08-30T12:32:33.451Z,89334.88
2022-08-30T12:35:06.548Z,89334.38
2022-08-30T12:37:38.608Z,89329.97
2022-08-30T12:40:21.437Z,89322.31
2022-08-30T12:43:24.656Z,89330.28
2022-08-30T12:45:53.877Z,89326.56
2022-08-30T12:48:21.896Z,89327.28
2022-08-30T12:50:54.997Z,89330.13
2022-08-30T12:53:42.933Z,89324.16
2022-08-30T12:56:13.361Z,89309.16
2022-08-30T12:58:46.416Z,89305.84
2022-08-30T13:01:16.126Z,89312.91
2022-08-30T13:03:56.394Z,89314.44
2022-08-30T13:06:42.971Z,89310.59
2022-08-30T13:09:21.462Z,89307.66
2022-08-30T13:11:50.662Z,89302.56
2022-08-30T13:14:35.078Z,89303.72
2022-08-30T13:17:26.579Z,89301.59
2022-08-30T13:20:04.934Z,89293.50
2022-08-30T13:22:37.600Z,89283.63
2022-08-30T13:25:06.230Z,89297.50
2022-08-30T13:27:36.835Z,89296.63
2022-08-30T13:30:13.286Z,89289.75
2022-08-30T13:32:40.769Z,89278.34
2022-08-30T13:35:09.515Z,89284.78
2022-08-30T13:37:49.705Z,89290.81
2022-08-30T13:40:20.176Z,89283.59
2022-08-30T13:42:47.176Z,89280.66
2022-08-30T13:48:03.081Z,89280.69
2022-08-30T13:50:31.059Z,89284.00
2022-08-30T13:52:58.158Z,89278.88
2022-08-30T13:55:25.136Z,89273.09
2022-08-30T13:57:54.348Z,89272.78
2022-08-30T14:00:22.264Z,89280.16
2022-08-30T14:02:54.540Z,89276.16
2022-08-30T14:05:48.204Z,89272.06
2022-08-30T14:11:06.353Z,89273.81
2022-08-30T14:13:33.501Z,89268.84
2022-08-30T14:18:52.222Z,89252.09
2022-08-30T14:21:21.237Z,89246.47
2022-08-30T14:23:51.738Z,89253.72
2022-08-30T14:26:25.112Z,89253.31
2022-08-30T14:28:57.463Z,89253.72
2022-08-30T14:31:26.058Z,89261.91
2022-08-30T14:33:53.205Z,89255.69
2022-08-30T14:36:20.119Z,89263.03
2022-08-30T14:38:48.532Z,89258.75
2022-08-30T14:41:15.550Z,89243.63
2022-08-30T14:43:42.333Z,89245.69
2022-08-30T14:46:11.388Z,89253.16
2022-08-30T14:48:39.439Z,89248.84
2022-08-30T14:51:17.442Z,89247.97
2022-08-30T14:53:45.452Z,89242.94
2022-08-30T14:56:16.722Z,89238.06
2022-08-30T14:58:49.997Z,89221.53
2022-08-30T15:01:17.245Z,89235.59
2022-08-30T15:03:44.534Z,89229.91
2022-08-30T15:06:12.484Z,89236.84
2022-08-30T15:08:39.579Z,89236.03
2022-08-30T15:11:12.111Z,89222.66
2022-08-30T15:13:40.193Z,89223.28
2022-08-30T15:16:20.882Z,89228.00
2022-08-30T15:18:49.255Z,89226.34
2022-08-30T15:21:41.493Z,89220.75
2022-08-30T15:24:11.553Z,89220.44
2022-08-30T15:26:38.601Z,89215.88
2022-08-30T15:29:05.601Z,89216.19
2022-08-30T15:31:32.888Z,89218.94
2022-08-30T15:34:00.186Z,89221.59
2022-08-30T15:36:28.949Z,89219.94
2022-08-30T15:38:56.862Z,89201.97
2022-08-30T15:41:23.939Z,89213.94
2022-08-30T15:43:51.419Z,89219.81
2022-08-30T15:46:22.903Z,89217.50
2022-08-30T15:48:52.222Z,89221.97
2022-08-30T15:51:19.366Z,89211.88
2022-08-30T15:53:46.854Z,89216.38
2022-08-30T15:56:14.419Z,89214.53
2022-08-30T15:58:42.631Z,89218.19
2022-08-30T16:01:10.382Z,89216.41
2022-08-30T16:03:38.238Z,89218.03
2022-08-30T16:06:05.151Z,89221.59
2022-08-30T16:08:32.055Z,89210.66
2022-08-30T16:10:58.875Z,89228.06
2022-08-30T16:13:26.209Z,89226.28
2022-08-30T16:15:53.319Z,89225.94
2022-08-30T16:18:20.181Z,89229.09
2022-08-30T16:20:46.935Z,89215.38
2022-08-30T16:23:13.820Z,89228.56
2022-08-30T16:25:41.156Z,89234.88
2022-08-30T16:28:09.335Z,89236.72
2022-08-30T16:30:37.160Z,89244.31
2022-08-30T16:33:04.248Z,89237.88
2022-08-30T16:35:34.796Z,89241.28
2022-08-30T16:38:01.831Z,89230.56
2022-08-30T16:40:29.323Z,89250.75
2022-08-30T16:42:56.208Z,89246.09
2022-08-30T16:45:23.094Z,89245.63
2022-08-30T16:47:51.119Z,89248.03
2022-08-30T16:50:19.098Z,89251.63
2022-08-30T16:52:45.962Z,89249.03
2022-08-30T16:55:12.861Z,89247.56
2022-08-30T16:57:40.316Z,89249.97
2022-08-30T17:00:08.007Z,89265.50
2022-08-30T17:02:40.709Z,89263.13
2022-08-30T17:05:12.454Z,89264.56
2022-08-30T17:07:40.154Z,89269.09
2022-08-30T17:10:07.250Z,89268.00
2022-08-30T17:12:36.022Z,89276.72
2022-08-30T17:15:05.681Z,89271.47
2022-08-30T17:17:33.268Z,89290.19
2022-08-30T17:20:00.204Z,89291.84
2022-08-30T17:22:27.196Z,89287.28
2022-08-30T17:24:54.104Z,89297.44
2022-08-30T17:27:21.059Z,89293.75
2022-08-30T17:29:48.210Z,89301.47
2022-08-30T17:32:15.006Z,89307.41
2022-08-30T17:34:41.909Z,89308.00
2022-08-30T17:37:08.922Z,89324.56
2022-08-30T17:39:37.119Z,89330.28
2022-08-30T17:42:04.525Z,89328.19
2022-08-30T17:44:34.742Z,89320.19
2022-08-30T17:47:01.719Z,89312.03
2022-08-30T17:49:29.029Z,89301.44
2022-08-30T17:51:58.003Z,89307.84
2022-08-30T17:54:26.725Z,89313.50
2022-08-30T17:56:54.387Z,89319.34
2022-08-30T17:59:24.784Z,89314.75
2022-08-30T18:01:53.461Z,89311.88
2022-08-30T18:04:20.643Z,89313.03
2022-08-30T18:06:48.131Z,89317.91
2022-08-30T18:09:16.180Z,89322.09
2022-08-30T18:11:43.187Z,89313.75
2022-08-30T18:14:10.990Z,89314.03
2022-08-30T18:16:39.034Z,89322.38
2022-08-30T18:19:21.198Z,89327.97
2022-08-30T18:21:48.074Z,89327.97
2022-08-30T18:24:16.753Z,89331.25
2022-08-30T18:26:43.711Z,89331.00
2022-08-30T18:29:11.246Z,89328.84
2022-08-30T18:31:38.602Z,89326.69
2022-08-30T18:34:05.912Z,89321.94
2022-08-30T18:36:34.059Z,89327.00
2022-08-30T18:39:01.198Z,89327.47
2022-08-30T18:41:28.204Z,89332.69
2022-08-30T18:44:17.164Z,89331.84
2022-08-30T18:46:45.269Z,89327.69
2022-08-30T18:49:23.373Z,89323.34
2022-08-30T18:51:50.541Z,89336.19
2022-08-30T18:54:17.612Z,89319.31
2022-08-30T18:56:46.098Z,89333.72
2022-08-30T18:59:13.631Z,89339.25
2022-08-30T19:01:41.135Z,89337.16
2022-08-30T19:04:08.222Z,89331.03
2022-08-30T19:06:37.738Z,89335.38
2022-08-30T19:09:09.032Z,89333.66
2022-08-30T19:11:38.283Z,89330.03
2022-08-30T19:14:05.980Z,89331.22
2022-08-30T19:16:35.447Z,89323.44
2022-08-30T19:19:04.370Z,89321.31
2022-08-30T19:21:31.196Z,89327.81
2022-08-30T19:23:58.668Z,89327.28
2022-08-30T19:26:27.594Z,89328.88
2022-08-30T19:28:54.632Z,89326.31
2022-08-30T19:31:21.528Z,89335.69
2022-08-30T19:33:48.408Z,89338.28
2022-08-30T19:36:15.424Z,89343.75
2022-08-30T19:38:42.672Z,89345.78
2022-08-30T19:41:09.512Z,89342.31
2022-08-30T19:43:36.702Z,89341.31
2022-08-30T19:46:03.613Z,89339.59
2022-08-30T19:51:18.210Z,89345.38
2022-08-30T19:53:45.855Z,89345.66
2022-08-30T19:56:13.118Z,89346.25
2022-08-30T19:58:39.952Z,89341.78
2022-08-30T20:01:13.169Z,89336.91
2022-08-30T20:03:53.733Z,89336.78
2022-08-30T20:06:23.694Z,89330.47
2022-08-30T20:08:50.554Z,89325.72
2022-08-30T20:11:23.355Z,89320.66
2022-08-30T20:13:50.590Z,89326.72
2022-08-30T20:16:17.852Z,89333.34
2022-08-30T20:18:44.908Z,89355.91
2022-08-30T20:21:13.424Z,89356.47
2022-08-30T20:23:41.547Z,89345.84
2022-08-30T20:26:10.068Z,89351.59
2022-08-30T20:28:38.026Z,89339.22
2022-08-30T20:31:07.322Z,89339.06
2022-08-30T20:33:36.507Z,89345.81
2022-08-30T20:36:05.581Z,89344.50
2022-08-30T20:38:33.119Z,89337.44
2022-08-30T20:41:00.019Z,89347.38
2022-08-30T20:43:28.887Z,89352.69
2022-08-30T20:45:56.322Z,89341.78
2022-08-30T20:48:24.789Z,89343.75
2022-08-30T20:50:51.680Z,89349.78
2022-08-30T20:53:18.520Z,89350.34
2022-08-30T20:55:47.521Z,89353.81
2022-08-30T20:58:15.103Z,89344.63
2022-08-30T21:00:45.771Z,89340.97
2022-08-30T21:03:26.060Z,89347.59
2022-08-30T21:05:55.789Z,89348.72
2022-08-30T21:08:22.827Z,89348.59
2022-08-30T21:10:49.791Z,89351.16
2022-08-30T21:13:17.166Z,89350.44
2022-08-30T21:15:44.100Z,89346.97
2022-08-30T21:18:10.949Z,89349.00
2022-08-30T21:20:37.966Z,89346.69
2022-08-30T21:23:04.881Z,89343.78
2022-08-30T21:25:31.915Z,89346.69
2022-08-30T21:27:59.090Z,89339.63
2022-08-30T21:30:26.042Z,89338.19
2022-08-30T21:32:52.870Z,89337.47
2022-08-30T21:35:20.167Z,89338.63
2022-08-30T21:37:47.022Z,89334.16
2022-08-30T21:40:14.929Z,89335.44
2022-08-30T21:42:41.950Z,89342.63
2022-08-30T21:45:09.312Z,89342.44
2022-08-30T21:47:36.108Z,89341.00
2022-08-30T21:50:03.254Z,89346.16
2022-08-30T21:52:30.726Z,89339.28
2022-08-30T21:54:57.638Z,89336.09
2022-08-30T21:57:24.702Z,89342.13
2022-08-30T22:03:27.267Z,89345.09
2022-08-30T22:06:18.844Z,89343.50
2022-08-30T22:08:50.111Z,89343.50
2022-08-30T22:11:22.765Z,89344.81
2022-08-30T22:13:51.489Z,89341.94
2022-08-30T22:16:19.996Z,89338.88
2022-08-30T22:18:47.813Z,89344.19
2022-08-30T22:21:18.315Z,89336.31
2022-08-30T22:23:45.597Z,89332.72
2022-08-30T22:26:15.974Z,89334.53
2022-08-30T22:28:43.569Z,89331.66
2022-08-30T22:31:12.677Z,89336.00
2022-08-30T22:33:39.904Z,89328.94
2022-08-30T22:36:13.011Z,89324.75
2022-08-30T22:38:40.771Z,89328.94
2022-08-30T22:41:17.343Z,89323.31
2022-08-30T22:43:44.912Z,89328.78
2022-08-30T22:46:12.461Z,89322.47
2022-08-30T22:48:42.514Z,89330.78
2022-08-30T22:51:11.044Z,89327.34
2022-08-30T22:53:38.473Z,89328.63
2022-08-30T22:56:11.736Z,89323.59
2022-08-30T22:58:39.184Z,89322.56
2022-08-30T23:01:06.580Z,89325.00
2022-08-30T23:03:36.961Z,89333.72
2022-08-30T23:06:04.242Z,89328.53
2022-08-30T23:08:31.049Z,89312.13
2022-08-30T23:10:58.115Z,89308.78
2022-08-30T23:13:25.577Z,89308.47
2022-08-30T23:15:52.475Z,89306.31
2022-08-30T23:18:19.389Z,89306.78
2022-08-30T23:20:46.209Z,89298.47
2022-08-30T23:23:13.123Z,89309.81
2022-08-30T23:25:41.442Z,89305.91
2022-08-30T23:28:08.425Z,89313.94
2022-08-30T23:30:35.391Z,89311.03
2022-08-30T23:33:02.282Z,89315.59
2022-08-30T23:35:29.767Z,89312.31
2022-08-30T23:38:03.949Z,89324.34
2022-08-30T23:40:30.953Z,89320.41
2022-08-30T23:42:57.838Z,89326.28
2022-08-30T23:45:24.732Z,89326.66
2022-08-30T23:47:51.603Z,89325.22
2022-08-30T23:50:18.439Z,89325.22
2022-08-30T23:52:45.375Z,89313.44
2022-08-30T23:55:12.205Z,89310.00
2022-08-30T23:57:39.062Z,89310.56
